createdAt,value
2023-04-05T00:01:16.012Z,7.10
2023-04-05T00:03:44.217Z,7.10
2023-04-05T00:06:13.491Z,7.00
2023-04-05T00:08:44.507Z,7.00
2023-04-05T00:11:13.002Z,7.00
2023-04-05T00:13:41.389Z,7.00
2023-04-05T00:16:09.609Z,7.00
2023-04-05T00:18:38.757Z,7.00
2023-04-05T00:21:07.635Z,7.00
2023-04-05T00:23:39.855Z,7.00
2023-04-05T00:26:08.309Z,7.00
2023-04-05T00:28:37.616Z,7.00
2023-04-05T00:31:06.858Z,7.00
2023-04-05T00:33:35.648Z,6.90
2023-04-05T00:36:17.989Z,6.90
2023-04-05T00:38:47.890Z,6.90
2023-04-05T00:41:16.380Z,6.90
2023-04-05T00:43:45.095Z,6.80
2023-04-05T00:46:13.779Z,6.90
2023-04-05T00:48:42.010Z,6.90
2023-04-05T00:51:11.990Z,6.90
2023-04-05T00:53:41.104Z,6.80
2023-04-05T00:56:10.444Z,6.80
2023-04-05T00:58:41.824Z,6.80
2023-04-05T01:01:22.689Z,6.80
2023-04-05T01:03:59.899Z,6.70
2023-04-05T01:06:59.975Z,6.60
2023-04-05T01:09:57.670Z,6.60
2023-04-05T01:12:32.260Z,6.70
2023-04-05T01:15:01.421Z,6.70
2023-04-05T01:17:37.063Z,6.60
2023-04-05T01:20:11.918Z,6.50
2023-04-05T01:22:49.438Z,6.50
2023-04-05T01:26:06.366Z,6.60
2023-04-05T01:29:10.982Z,6.60
2023-04-05T01:31:47.367Z,6.60
2023-04-05T01:34:32.726Z,6.60
2023-04-05T01:37:08.521Z,6.60
2023-04-05T01:39:37.636Z,6.50
2023-04-05T01:42:08.160Z,6.50
2023-04-05T01:44:36.498Z,6.50
2023-04-05T01:47:04.533Z,6.40
2023-04-05T01:49:32.481Z,6.40
2023-04-05T01:52:00.506Z,6.40
2023-04-05T01:54:29.025Z,6.40
2023-04-05T01:56:58.258Z,6.30
2023-04-05T01:59:26.873Z,6.30
2023-04-05T02:01:55.514Z,6.30
2023-04-05T02:04:23.789Z,6.30
2023-04-05T02:06:52.802Z,6.20
2023-04-05T02:09:21.153Z,6.30
2023-04-05T02:11:49.627Z,6.30
2023-04-05T02:14:17.669Z,6.40
2023-04-05T02:17:06.499Z,6.40
2023-04-05T02:19:40.915Z,6.30
2023-04-05T02:22:10.035Z,6.30
2023-04-05T02:24:38.334Z,6.30
2023-04-05T02:27:08.145Z,6.30
2023-04-05T02:29:38.149Z,6.30
2023-04-05T02:32:06.761Z,6.30
2023-04-05T02:34:37.088Z,6.40
2023-04-05T02:37:05.537Z,6.40
2023-04-05T02:39:34.767Z,6.30
2023-04-05T02:42:03.410Z,6.30
2023-04-05T02:44:31.598Z,6.20
2023-04-05T02:47:00.047Z,6.30
2023-04-05T02:49:32.494Z,6.20
2023-04-05T02:52:04.315Z,6.20
2023-04-05T02:54:33.106Z,6.30
2023-04-05T02:57:04.225Z,6.30
2023-04-05T03:00:08.769Z,6.40
2023-04-05T03:02:37.801Z,6.40
2023-04-05T03:05:07.999Z,6.40
2023-04-05T03:07:38.442Z,6.30
2023-04-05T03:10:10.952Z,6.30
2023-04-05T03:12:41.760Z,6.20
2023-04-05T03:15:12.066Z,6.20
2023-04-05T03:17:44.684Z,6.00
2023-04-05T03:20:15.070Z,5.90
2023-04-05T03:22:44.067Z,5.80
2023-04-05T03:25:13.577Z,5.70
2023-04-05T03:27:48.049Z,5.60
2023-04-05T03:30:18.957Z,5.60
2023-04-05T03:33:03.132Z,5.60
2023-04-05T03:36:01.272Z,5.50
2023-04-05T03:38:35.312Z,5.50
2023-04-05T03:41:16.580Z,5.50
2023-04-05T03:43:45.921Z,5.40
2023-04-05T03:46:14.552Z,5.40
2023-04-05T03:48:42.876Z,5.40
2023-04-05T03:51:11.906Z,5.40
2023-04-05T03:53:40.090Z,5.40
2023-04-05T03:56:08.817Z,5.40
2023-04-05T03:58:55.140Z,5.40
2023-04-05T04:01:27.236Z,5.40
2023-04-05T04:03:56.073Z,5.40
2023-04-05T04:06:27.324Z,5.30
2023-04-05T04:08:57.231Z,5.30
2023-04-05T04:11:26.069Z,5.20
2023-04-05T04:13:54.286Z,5.20
2023-04-05T04:16:36.229Z,5.10
2023-04-05T04:19:28.190Z,5.10
2023-04-05T04:22:20.898Z,5.10
2023-04-05T04:25:26.687Z,5.00
2023-04-05T04:28:21.392Z,5.00
2023-04-05T04:31:25.205Z,5.00
2023-04-05T04:34:14.716Z,5.00
2023-04-05T04:37:00.865Z,4.90
2023-04-05T04:39:49.586Z,4.90
2023-04-05T04:42:47.725Z,4.90
2023-04-05T04:45:38.145Z,4.80
2023-04-05T04:48:26.861Z,4.80
2023-04-05T04:51:06.655Z,4.70
2023-04-05T04:53:37.267Z,4.60
2023-04-05T04:56:09.327Z,4.60
2023-04-05T04:58:37.384Z,4.60
2023-04-05T05:01:10.192Z,4.60
2023-04-05T05:03:39.181Z,4.60
2023-04-05T05:06:08.931Z,4.60
2023-04-05T05:08:38.333Z,4.60
2023-04-05T05:11:32.236Z,4.60
2023-04-05T05:14:00.700Z,4.60
2023-04-05T05:16:30.401Z,4.60
2023-04-05T05:18:59.129Z,4.60
2023-04-05T05:21:32.758Z,4.60
2023-04-05T05:24:03.660Z,4.60
2023-04-05T05:26:31.711Z,4.60
2023-04-05T05:29:03.142Z,4.60
2023-04-05T05:31:34.548Z,4.70
2023-04-05T05:34:02.973Z,4.80
2023-04-05T05:36:32.154Z,4.80
2023-04-05T05:39:00.980Z,4.80
2023-04-05T05:41:29.534Z,4.80
2023-04-05T05:43:57.832Z,4.80
2023-04-05T05:46:27.410Z,4.90
2023-04-05T05:48:55.626Z,4.90
2023-04-05T05:51:23.974Z,5.00
2023-04-05T05:53:52.223Z,4.90
2023-04-05T05:56:21.093Z,4.90
2023-04-05T05:58:49.419Z,5.00
2023-04-05T06:01:17.740Z,4.90
2023-04-05T06:03:46.743Z,5.00
2023-04-05T06:06:15.206Z,5.00
2023-04-05T06:08:43.988Z,5.10
2023-04-05T06:11:23.106Z,5.00
2023-04-05T06:13:52.729Z,5.00
2023-04-05T06:16:21.451Z,5.10
2023-04-05T06:18:50.525Z,5.10
2023-04-05T06:21:18.518Z,5.10
2023-04-05T06:23:46.622Z,5.10
2023-04-05T06:26:24.484Z,5.20
2023-04-05T06:28:53.674Z,5.10
2023-04-05T06:31:27.609Z,5.10
2023-04-05T06:33:56.041Z,5.10
2023-04-05T06:36:25.550Z,5.10
2023-04-05T06:38:55.961Z,5.10
2023-04-05T06:41:24.817Z,5.10
2023-04-05T06:43:52.967Z,5.00
2023-04-05T06:46:21.154Z,5.00
2023-04-05T06:48:50.075Z,5.00
2023-04-05T06:51:19.222Z,5.00
2023-04-05T06:53:48.177Z,5.00
2023-04-05T06:56:16.815Z,5.10
2023-04-05T06:58:45.218Z,5.10
2023-04-05T07:01:13.861Z,5.10
2023-04-05T07:03:42.203Z,5.20
2023-04-05T07:06:12.052Z,5.30
2023-04-05T07:08:40.165Z,5.30
2023-04-05T07:11:08.728Z,5.10
2023-04-05T07:13:36.698Z,5.20
2023-04-05T07:16:04.878Z,5.30
2023-04-05T07:18:33.963Z,5.20
2023-04-05T07:21:04.177Z,5.30
2023-04-05T07:23:33.119Z,5.30
2023-04-05T07:26:08.486Z,5.40
2023-04-05T07:28:37.092Z,5.50
2023-04-05T07:31:06.949Z,5.50
2023-04-05T07:33:35.733Z,5.50
2023-04-05T07:36:04.919Z,5.50
2023-04-05T07:38:33.893Z,5.60
2023-04-05T07:41:01.909Z,5.60
2023-04-05T07:43:30.705Z,5.60
2023-04-05T07:46:06.107Z,5.50
2023-04-05T07:48:34.320Z,5.50
2023-04-05T07:51:08.742Z,5.60
2023-04-05T07:53:37.926Z,5.60
2023-04-05T07:56:16.484Z,5.60
2023-04-05T07:58:44.884Z,5.60
2023-04-05T08:01:13.538Z,5.60
2023-04-05T08:03:42.239Z,5.60
2023-04-05T08:06:14.841Z,5.70
2023-04-05T08:08:43.266Z,5.80
2023-04-05T08:11:12.997Z,5.80
2023-04-05T08:13:42.012Z,5.80
2023-04-05T08:16:11.874Z,5.80
2023-04-05T08:18:40.037Z,5.90
2023-04-05T08:21:08.483Z,5.90
2023-04-05T08:23:37.292Z,5.90
2023-04-05T08:26:07.915Z,5.90
2023-04-05T08:28:36.364Z,5.90
2023-04-05T08:31:04.849Z,6.00
2023-04-05T08:33:33.220Z,6.00
2023-04-05T08:36:07.276Z,6.10
2023-04-05T08:38:36.929Z,6.10
2023-04-05T08:41:23.725Z,6.10
2023-04-05T08:44:02.721Z,6.20
2023-04-05T08:46:33.240Z,6.30
2023-04-05T08:49:11.740Z,6.30
2023-04-05T08:51:40.488Z,6.40
2023-04-05T08:54:09.061Z,6.40
2023-04-05T08:56:39.049Z,6.50
2023-04-05T08:59:35.627Z,6.60
2023-04-05T09:02:18.430Z,6.50
2023-04-05T09:04:48.735Z,6.70
2023-04-05T09:07:17.787Z,6.80
2023-04-05T09:09:53.546Z,6.90
2023-04-05T09:12:25.820Z,6.90
2023-04-05T09:14:55.411Z,7.00
2023-04-05T09:17:24.001Z,7.10
2023-04-05T09:19:53.045Z,7.10
2023-04-05T09:22:24.055Z,7.00
2023-04-05T09:24:52.594Z,7.10
2023-04-05T09:27:23.960Z,7.30
2023-04-05T09:29:57.910Z,7.30
2023-04-05T09:32:28.534Z,7.30
2023-04-05T09:35:04.789Z,7.50
2023-04-05T09:37:35.827Z,7.60
2023-04-05T09:40:07.237Z,7.60
2023-04-05T09:42:47.608Z,7.70
2023-04-05T09:45:18.459Z,7.80
2023-04-05T09:47:59.452Z,7.70
2023-04-05T09:50:28.552Z,7.60
2023-04-05T09:53:16.585Z,7.30
2023-04-05T09:55:47.399Z,7.00
2023-04-05T09:58:22.112Z,7.20
2023-04-05T10:01:00.056Z,7.10
2023-04-05T10:03:32.202Z,7.00
2023-04-05T10:06:01.808Z,7.00
2023-04-05T10:08:29.911Z,7.00
2023-04-05T10:10:59.224Z,7.10
2023-04-05T10:13:28.022Z,6.90
2023-04-05T10:15:58.344Z,7.00
2023-04-05T10:18:39.527Z,7.10
2023-04-05T10:21:12.589Z,7.10
2023-04-05T10:23:47.124Z,7.10
2023-04-05T10:26:41.487Z,7.20
2023-04-05T10:29:17.292Z,7.20
2023-04-05T10:31:59.667Z,7.20
2023-04-05T10:34:45.557Z,7.10
2023-04-05T10:37:37.180Z,7.10
2023-04-05T10:40:11.276Z,7.30
2023-04-05T10:42:44.453Z,7.40
2023-04-05T10:45:19.722Z,7.50
2023-04-05T10:48:07.111Z,7.50
2023-04-05T10:50:37.309Z,7.50
2023-04-05T10:53:06.518Z,7.50
2023-04-05T10:55:35.845Z,7.60
2023-04-05T10:58:04.395Z,7.80
2023-04-05T11:00:34.259Z,7.80
2023-04-05T11:03:02.820Z,7.90
2023-04-05T11:05:36.297Z,7.90
2023-04-05T11:08:07.838Z,7.90
2023-04-05T11:10:37.773Z,7.90
2023-04-05T11:13:10.748Z,7.70
2023-04-05T11:15:39.951Z,7.70
2023-04-05T11:18:11.254Z,7.70
2023-04-05T11:20:43.598Z,7.80
2023-04-05T11:23:13.632Z,7.70
2023-04-05T11:25:47.894Z,7.80
2023-04-05T11:28:26.031Z,7.70
2023-04-05T11:31:04.581Z,7.60
2023-04-05T11:33:42.810Z,7.50
2023-04-05T11:36:13.139Z,7.70
2023-04-05T11:38:44.179Z,7.60
2023-04-05T11:41:21.146Z,7.50
2023-04-05T11:43:52.732Z,7.50
2023-04-05T11:46:22.534Z,7.60
2023-04-05T11:48:51.372Z,7.60
2023-04-05T11:51:23.141Z,7.60
2023-04-05T11:53:51.151Z,7.50
2023-04-05T11:56:20.308Z,7.50
2023-04-05T11:58:49.465Z,7.50
2023-04-05T12:01:21.012Z,7.40
2023-04-05T12:03:55.649Z,7.40
2023-04-05T12:06:25.121Z,7.50
2023-04-05T12:08:56.013Z,7.50
2023-04-05T12:11:31.208Z,7.50
2023-04-05T12:14:02.410Z,7.60
2023-04-05T12:16:31.027Z,7.50
2023-04-05T12:19:00.509Z,7.50
2023-04-05T12:21:29.023Z,7.40
2023-04-05T12:23:58.343Z,7.50
2023-04-05T12:26:27.167Z,7.40
2023-04-05T12:28:57.958Z,7.50
2023-04-05T12:31:38.344Z,7.50
2023-04-05T12:34:08.188Z,7.50
2023-04-05T12:36:37.487Z,7.50
2023-04-05T12:39:08.202Z,7.60
2023-04-05T12:41:37.696Z,7.50
2023-04-05T12:44:06.840Z,7.50
2023-04-05T12:46:41.383Z,7.60
2023-04-05T12:49:16.890Z,7.60
2023-04-05T12:51:47.472Z,7.70
2023-04-05T12:54:24.604Z,7.70
2023-04-05T12:56:54.743Z,7.70
2023-04-05T12:59:23.876Z,7.70
2023-04-05T13:01:53.134Z,7.70
2023-04-05T13:04:23.238Z,7.80
2023-04-05T13:06:51.401Z,7.80
2023-04-05T13:09:19.584Z,7.70
2023-04-05T13:11:48.042Z,7.60
2023-04-05T13:14:16.213Z,7.60
2023-04-05T13:16:44.870Z,7.60
2023-04-05T13:19:13.069Z,7.50
2023-04-05T13:21:42.560Z,7.50
2023-04-05T13:24:12.887Z,7.40
2023-04-05T13:26:41.651Z,7.50
2023-04-05T13:29:09.766Z,7.50
2023-04-05T13:31:38.260Z,7.70
2023-04-05T13:34:07.221Z,7.80
2023-04-05T13:36:36.245Z,7.90
2023-04-05T13:39:04.340Z,7.80
2023-04-05T13:41:32.531Z,7.90
2023-04-05T13:44:02.374Z,8.00
2023-04-05T13:46:31.507Z,7.90
2023-04-05T13:49:00.462Z,7.90
2023-04-05T13:51:32.536Z,8.00
2023-04-05T13:54:01.673Z,7.90
2023-04-05T13:56:30.401Z,8.00
2023-04-05T13:58:58.350Z,7.90
2023-04-05T14:01:27.497Z,7.90
2023-04-05T14:03:56.417Z,8.00
2023-04-05T14:06:25.600Z,8.00
2023-04-05T14:08:55.419Z,8.10
2023-04-05T14:11:49.176Z,8.20
2023-04-05T14:14:17.367Z,8.20
2023-04-05T14:16:45.972Z,8.20
2023-04-05T14:19:16.471Z,8.30
2023-04-05T14:21:45.961Z,8.40
2023-04-05T14:24:14.058Z,8.40
2023-04-05T14:26:46.018Z,8.50
2023-04-05T14:29:14.057Z,8.50
2023-04-05T14:31:42.897Z,8.60
2023-04-05T14:34:12.637Z,8.60
2023-04-05T14:36:41.421Z,8.60
2023-04-05T14:39:10.077Z,8.70
2023-04-05T14:41:38.921Z,8.80
2023-04-05T14:44:32.946Z,8.90
2023-04-05T14:47:01.328Z,8.60
2023-04-05T14:49:29.816Z,8.60
2023-04-05T14:51:58.587Z,8.50
2023-04-05T14:54:27.274Z,8.60
2023-04-05T14:56:56.326Z,8.60
2023-04-05T14:59:26.447Z,8.60
2023-04-05T15:01:54.764Z,8.50
2023-04-05T15:04:23.276Z,8.60
2023-04-05T15:06:52.256Z,8.60
2023-04-05T15:09:20.568Z,8.70
2023-04-05T15:11:48.536Z,8.80
2023-04-05T15:14:28.905Z,8.80
2023-04-05T15:17:00.122Z,8.80
2023-04-05T15:19:30.793Z,8.70
2023-04-05T15:21:59.583Z,8.70
2023-04-05T15:24:27.644Z,8.70
2023-04-05T15:27:02.020Z,8.70
2023-04-05T15:29:31.145Z,8.70
2023-04-05T15:32:03.265Z,8.80
2023-04-05T15:34:31.757Z,8.80
2023-04-05T15:37:00.557Z,8.80
2023-04-05T15:39:28.533Z,8.80
2023-04-05T15:41:57.915Z,8.80
2023-04-05T15:44:26.801Z,8.80
2023-04-05T15:46:55.383Z,8.90
2023-04-05T15:49:24.256Z,8.90
2023-04-05T15:51:52.407Z,8.80
2023-04-05T15:54:21.149Z,8.70
2023-04-05T15:56:49.362Z,8.60
2023-04-05T15:59:17.880Z,8.60
2023-04-05T16:01:46.424Z,8.70
2023-04-05T16:04:14.527Z,8.70
2023-04-05T16:06:43.217Z,8.80
2023-04-05T16:09:11.495Z,8.90
2023-04-05T16:11:40.071Z,9.00
2023-04-05T16:14:11.381Z,9.00
2023-04-05T16:16:50.081Z,9.10
2023-04-05T16:19:22.640Z,9.10
2023-04-05T16:21:53.028Z,9.10
2023-04-05T16:24:21.789Z,9.00
2023-04-05T16:26:50.495Z,9.00
2023-04-05T16:29:18.708Z,8.90
2023-04-05T16:31:48.445Z,8.90
2023-04-05T16:34:16.543Z,8.90
2023-04-05T16:36:45.037Z,8.80
2023-04-05T16:39:13.814Z,8.80
2023-04-05T16:41:42.056Z,8.70
2023-04-05T16:44:11.033Z,8.60
2023-04-05T16:46:40.013Z,8.60
2023-04-05T16:49:08.461Z,8.50
2023-04-05T16:51:37.490Z,8.50
2023-04-05T16:54:05.988Z,8.60
2023-04-05T16:56:34.222Z,8.50
2023-04-05T16:59:05.060Z,8.40
2023-04-05T17:01:35.137Z,8.40
2023-04-05T17:04:03.135Z,8.50
2023-04-05T17:06:32.656Z,8.50
2023-04-05T17:09:01.323Z,8.40
2023-04-05T17:11:31.040Z,8.40
2023-04-05T17:13:59.888Z,8.40
2023-04-05T17:16:28.335Z,8.50
2023-04-05T17:18:57.037Z,8.50
2023-04-05T17:21:25.977Z,8.50
2023-04-05T17:23:54.401Z,8.60
2023-04-05T17:26:24.090Z,8.60
2023-04-05T17:28:52.669Z,8.50
2023-04-05T17:31:21.593Z,8.50
2023-04-05T17:33:50.162Z,8.50
2023-04-05T17:36:18.571Z,8.60
2023-04-05T17:38:46.959Z,8.60
2023-04-05T17:41:15.516Z,8.60
2023-04-05T17:43:43.574Z,8.60
2023-04-05T17:46:14.026Z,8.60
2023-04-05T17:48:42.494Z,8.60
2023-04-05T17:51:11.479Z,8.50
2023-04-05T17:53:39.782Z,8.40
2023-04-05T17:56:07.877Z,8.40
2023-04-05T17:58:36.440Z,8.30
2023-04-05T18:01:04.478Z,8.30
2023-04-05T18:03:33.717Z,8.20
2023-04-05T18:06:02.179Z,8.20
2023-04-05T18:08:30.990Z,8.10
2023-04-05T18:11:00.372Z,8.00
2023-04-05T18:13:28.644Z,8.00
2023-04-05T18:15:59.151Z,8.00
2023-04-05T18:18:33.212Z,7.90
2023-04-05T18:21:02.196Z,7.90
2023-04-05T18:23:31.335Z,7.90
2023-04-05T18:26:07.842Z,7.80
2023-04-05T18:28:36.295Z,7.70
2023-04-05T18:31:05.186Z,7.70
2023-04-05T18:33:33.674Z,7.70
2023-04-05T18:36:03.179Z,7.60
2023-04-05T18:38:31.874Z,7.50
2023-04-05T18:41:07.183Z,7.60
2023-04-05T18:43:35.363Z,7.50
2023-04-05T18:46:04.004Z,7.50
2023-04-05T18:48:34.065Z,7.50
2023-04-05T18:51:02.446Z,7.40
2023-04-05T18:53:31.139Z,7.50
2023-04-05T18:55:59.420Z,7.50
2023-04-05T18:58:28.420Z,7.60
2023-04-05T19:00:56.822Z,7.60
2023-04-05T19:03:25.500Z,7.60
2023-04-05T19:05:54.530Z,7.60
2023-04-05T19:08:22.998Z,7.50
2023-04-05T19:10:51.726Z,7.50
2023-04-05T19:13:19.964Z,7.50
2023-04-05T19:15:48.463Z,7.60
2023-04-05T19:18:16.934Z,7.60
2023-04-05T19:20:45.107Z,7.50
2023-04-05T19:23:13.519Z,7.60
2023-04-05T19:25:42.555Z,7.50
2023-04-05T19:28:11.321Z,7.50
2023-04-05T19:30:43.660Z,7.60
2023-04-05T19:33:12.979Z,7.60
2023-04-05T19:35:42.212Z,7.50
2023-04-05T19:38:14.217Z,7.40
2023-04-05T19:40:43.515Z,7.40
2023-04-05T19:43:13.343Z,7.30
2023-04-05T19:45:42.446Z,7.30
2023-04-05T19:48:36.847Z,7.20
2023-04-05T19:51:07.227Z,7.20
2023-04-05T19:53:44.246Z,7.20
2023-04-05T19:56:23.743Z,7.20
2023-04-05T19:58:58.859Z,7.30
2023-04-05T20:01:36.908Z,7.30
2023-04-05T20:04:16.584Z,7.30
2023-04-05T20:06:54.181Z,7.40
2023-04-05T20:09:31.041Z,7.40
2023-04-05T20:12:02.619Z,7.40
2023-04-05T20:14:36.467Z,7.40
2023-04-05T20:17:05.160Z,7.40
2023-04-05T20:19:34.264Z,7.40
2023-04-05T20:22:06.430Z,7.30
2023-04-05T20:24:37.915Z,7.20
2023-04-05T20:27:06.126Z,6.90
2023-04-05T20:29:36.194Z,6.70
2023-04-05T20:32:06.576Z,6.70
2023-04-05T20:34:38.074Z,6.60
2023-04-05T20:37:07.961Z,6.50
2023-04-05T20:39:35.947Z,6.50
2023-04-05T20:42:05.144Z,6.50
2023-04-05T20:44:34.096Z,6.50
2023-04-05T20:47:03.196Z,6.60
2023-04-05T20:49:32.162Z,6.50
2023-04-05T20:52:03.104Z,6.40
2023-04-05T20:54:31.662Z,6.40
2023-04-05T20:57:00.136Z,6.30
2023-04-05T20:59:29.028Z,6.20
2023-04-05T21:01:57.683Z,6.10
2023-04-05T21:04:29.352Z,6.20
2023-04-05T21:06:58.596Z,6.20
2023-04-05T21:09:27.875Z,6.10
2023-04-05T21:11:56.865Z,6.10
2023-04-05T21:14:25.338Z,6.00
2023-04-05T21:16:53.287Z,6.00
2023-04-05T21:19:22.184Z,6.00
2023-04-05T21:21:50.965Z,5.90
2023-04-05T21:24:19.573Z,5.90
2023-04-05T21:26:47.892Z,5.90
2023-04-05T21:29:16.035Z,5.80
2023-04-05T21:31:44.676Z,5.90
2023-04-05T21:34:12.699Z,5.90
2023-04-05T21:36:41.542Z,5.90
2023-04-05T21:39:10.047Z,5.90
2023-04-05T21:41:38.388Z,5.80
2023-04-05T21:44:07.025Z,5.80
2023-04-05T21:46:35.218Z,5.70
2023-04-05T21:49:04.956Z,5.70
2023-04-05T21:51:33.716Z,5.70
2023-04-05T21:54:02.139Z,5.60
2023-04-05T21:56:30.524Z,5.60
2023-04-05T21:58:59.127Z,5.60
2023-04-05T22:01:27.913Z,5.50
2023-04-05T22:03:56.551Z,5.50
2023-04-05T22:06:25.061Z,5.40
2023-04-05T22:08:54.815Z,5.40
2023-04-05T22:11:25.161Z,5.40
2023-04-05T22:13:54.160Z,5.40
2023-04-05T22:16:22.836Z,5.30
2023-04-05T22:18:51.128Z,5.20
2023-04-05T22:21:19.663Z,5.20
2023-04-05T22:23:48.476Z,5.20
2023-04-05T22:26:17.131Z,5.20
2023-04-05T22:28:45.900Z,5.10
2023-04-05T22:31:14.984Z,5.10
2023-04-05T22:33:42.960Z,5.00
2023-04-05T22:36:11.468Z,5.00
2023-04-05T22:38:39.546Z,4.90
2023-04-05T22:41:08.562Z,4.90
2023-04-05T22:43:37.189Z,4.90
2023-04-05T22:46:05.664Z,4.90
2023-04-05T22:48:34.132Z,4.90
2023-04-05T22:51:02.437Z,5.00
2023-04-05T22:53:30.739Z,5.00
2023-04-05T22:55:59.667Z,5.00
2023-04-05T22:58:30.670Z,5.10
2023-04-05T23:00:58.939Z,4.90
2023-04-05T23:03:26.884Z,4.80
2023-04-05T23:05:54.991Z,4.70
2023-04-05T23:08:23.246Z,4.60
2023-04-05T23:10:51.405Z,4.70
2023-04-05T23:13:20.706Z,4.70
2023-04-05T23:15:49.268Z,4.80
2023-04-05T23:18:22.155Z,4.90
2023-04-05T23:20:51.468Z,4.90
2023-04-05T23:23:20.856Z,4.90
2023-04-05T23:25:48.903Z,4.70
2023-04-05T23:28:16.969Z,4.70
2023-04-05T23:30:45.375Z,4.80
2023-04-05T23:33:14.453Z,4.80
2023-04-05T23:35:43.041Z,4.90
2023-04-05T23:38:11.482Z,4.90
2023-04-05T23:40:40.162Z,4.80
2023-04-05T23:43:09.196Z,4.70
2023-04-05T23:45:37.660Z,4.60
2023-04-05T23:48:06.595Z,4.40
2023-04-05T23:50:34.565Z,4.40
2023-04-05T23:53:03.009Z,4.50
2023-04-05T23:55:32.647Z,4.50
2023-04-05T23:58:01.530Z,4.50
